sensor_id;sensor_type;location;lat;lon;timestamp;P1;durP1;ratioP1;P2;durP2;ratioP2
15833;SDS011;8017;50.812;4.934;2023-05-03T00:02:17;10.57;;;4.63;;
15833;SDS011;8017;50.812;4.934;2023-05-03T00:05:19;12.17;;;5.40;;
15833;SDS011;8017;50.812;4.934;2023-05-03T00:08:21;11.93;;;5.57;;
15833;SDS011;8017;50.812;4.934;2023-05-03T00:11:24;6.73;;;4.90;;
15833;SDS011;8017;50.812;4.934;2023-05-03T00:14:26;9.70;;;5.20;;
15833;SDS011;8017;50.812;4.934;2023-05-03T00:17:28;9.00;;;4.53;;
15833;SDS011;8017;50.812;4.934;2023-05-03T00:20:30;11.03;;;5.60;;
15833;SDS011;8017;50.812;4.934;2023-05-03T00:23:32;8.40;;;4.83;;
15833;SDS011;8017;50.812;4.934;2023-05-03T00:26:35;10.97;;;5.47;;
15833;SDS011;8017;50.812;4.934;2023-05-03T00:29:37;7.77;;;4.70;;
15833;SDS011;8017;50.812;4.934;2023-05-03T00:32:39;10.60;;;5.60;;
15833;SDS011;8017;50.812;4.934;2023-05-03T00:35:41;8.27;;;4.97;;
15833;SDS011;8017;50.812;4.934;2023-05-03T00:38:43;7.90;;;4.87;;
15833;SDS011;8017;50.812;4.934;2023-05-03T00:41:46;12.93;;;5.10;;
15833;SDS011;8017;50.812;4.934;2023-05-03T00:44:48;8.47;;;5.53;;
15833;SDS011;8017;50.812;4.934;2023-05-03T00:47:50;5.73;;;5.03;;
15833;SDS011;8017;50.812;4.934;2023-05-03T00:50:52;10.33;;;5.77;;
15833;SDS011;8017;50.812;4.934;2023-05-03T00:53:55;9.20;;;5.57;;
15833;SDS011;8017;50.812;4.934;2023-05-03T00:56:58;10.07;;;5.47;;
15833;SDS011;8017;50.812;4.934;2023-05-03T01:00:00;8.83;;;5.47;;
15833;SDS011;8017;50.812;4.934;2023-05-03T01:03:02;8.63;;;5.63;;
15833;SDS011;8017;50.812;4.934;2023-05-03T01:06:06;7.70;;;5.23;;
15833;SDS011;8017;50.812;4.934;2023-05-03T01:09:14;13.67;;;5.03;;
15833;SDS011;8017;50.812;4.934;2023-05-03T01:12:27;9.93;;;4.97;;
15833;SDS011;8017;50.812;4.934;2023-05-03T01:15:49;10.00;;;5.17;;
15833;SDS011;8017;50.812;4.934;2023-05-03T01:18:59;7.67;;;5.23;;
15833;SDS011;8017;50.812;4.934;2023-05-03T01:22:09;7.17;;;4.50;;
15833;SDS011;8017;50.812;4.934;2023-05-03T01:25:19;7.83;;;5.03;;
15833;SDS011;8017;50.812;4.934;2023-05-03T01:28:21;7.17;;;5.47;;
15833;SDS011;8017;50.812;4.934;2023-05-03T01:31:25;7.70;;;4.93;;
15833;SDS011;8017;50.812;4.934;2023-05-03T01:34:31;6.87;;;5.33;;
15833;SDS011;8017;50.812;4.934;2023-05-03T01:37:38;6.87;;;5.30;;
15833;SDS011;8017;50.812;4.934;2023-05-03T01:40:44;9.37;;;5.47;;
15833;SDS011;8017;50.812;4.934;2023-05-03T01:43:48;7.77;;;5.60;;
15833;SDS011;8017;50.812;4.934;2023-05-03T01:46:53;9.67;;;5.77;;
15833;SDS011;8017;50.812;4.934;2023-05-03T01:49:57;9.67;;;5.83;;
15833;SDS011;8017;50.812;4.934;2023-05-03T01:52:59;8.53;;;5.33;;
15833;SDS011;8017;50.812;4.934;2023-05-03T01:56:02;9.50;;;6.10;;
15833;SDS011;8017;50.812;4.934;2023-05-03T01:59:05;9.30;;;5.30;;
15833;SDS011;8017;50.812;4.934;2023-05-03T02:02:07;8.40;;;5.30;;
15833;SDS011;8017;50.812;4.934;2023-05-03T02:05:09;9.23;;;5.63;;
15833;SDS011;8017;50.812;4.934;2023-05-03T02:08:11;8.90;;;5.40;;
15833;SDS011;8017;50.812;4.934;2023-05-03T02:11:14;10.57;;;5.03;;
15833;SDS011;8017;50.812;4.934;2023-05-03T02:14:16;7.40;;;5.30;;
15833;SDS011;8017;50.812;4.934;2023-05-03T02:17:18;11.57;;;5.50;;
15833;SDS011;8017;50.812;4.934;2023-05-03T02:20:20;9.70;;;5.33;;
15833;SDS011;8017;50.812;4.934;2023-05-03T02:23:22;8.43;;;5.87;;
15833;SDS011;8017;50.812;4.934;2023-05-03T02:26:25;8.63;;;5.33;;
15833;SDS011;8017;50.812;4.934;2023-05-03T02:29:27;8.67;;;5.80;;
15833;SDS011;8017;50.812;4.934;2023-05-03T02:32:29;7.37;;;5.47;;
15833;SDS011;8017;50.812;4.934;2023-05-03T02:35:31;9.47;;;5.70;;
15833;SDS011;8017;50.812;4.934;2023-05-03T02:38:33;9.37;;;5.97;;
15833;SDS011;8017;50.812;4.934;2023-05-03T02:41:36;10.67;;;5.70;;
15833;SDS011;8017;50.812;4.934;2023-05-03T02:44:38;6.97;;;4.90;;
15833;SDS011;8017;50.812;4.934;2023-05-03T02:47:40;8.47;;;5.50;;
15833;SDS011;8017;50.812;4.934;2023-05-03T02:50:42;11.53;;;6.70;;
15833;SDS011;8017;50.812;4.934;2023-05-03T02:53:44;9.60;;;5.83;;
15833;SDS011;8017;50.812;4.934;2023-05-03T02:56:47;12.93;;;6.47;;
15833;SDS011;8017;50.812;4.934;2023-05-03T02:59:49;8.37;;;6.50;;
15833;SDS011;8017;50.812;4.934;2023-05-03T03:02:51;7.13;;;5.47;;
15833;SDS011;8017;50.812;4.934;2023-05-03T03:05:53;7.40;;;5.07;;
15833;SDS011;8017;50.812;4.934;2023-05-03T03:08:54;6.47;;;5.63;;
15833;SDS011;8017;50.812;4.934;2023-05-03T03:11:59;13.03;;;6.10;;
15833;SDS011;8017;50.812;4.934;2023-05-03T03:15:03;8.33;;;5.80;;
15833;SDS011;8017;50.812;4.934;2023-05-03T03:18:06;8.83;;;6.10;;
15833;SDS011;8017;50.812;4.934;2023-05-03T03:21:08;10.87;;;6.13;;
15833;SDS011;8017;50.812;4.934;2023-05-03T03:24:09;9.87;;;6.97;;
15833;SDS011;8017;50.812;4.934;2023-05-03T03:27:13;8.73;;;6.63;;
15833;SDS011;8017;50.812;4.934;2023-05-03T03:30:15;11.27;;;6.77;;
15833;SDS011;8017;50.812;4.934;2023-05-03T03:33:17;8.10;;;5.83;;
15833;SDS011;8017;50.812;4.934;2023-05-03T03:36:19;9.70;;;6.37;;
15833;SDS011;8017;50.812;4.934;2023-05-03T03:39:21;11.13;;;7.00;;
15833;SDS011;8017;50.812;4.934;2023-05-03T03:42:24;13.73;;;7.23;;
15833;SDS011;8017;50.812;4.934;2023-05-03T03:45:26;10.47;;;6.90;;
15833;SDS011;8017;50.812;4.934;2023-05-03T03:48:28;8.03;;;6.50;;
15833;SDS011;8017;50.812;4.934;2023-05-03T03:51:30;13.03;;;6.83;;
15833;SDS011;8017;50.812;4.934;2023-05-03T03:54:33;10.17;;;7.10;;
15833;SDS011;8017;50.812;4.934;2023-05-03T03:57:36;14.73;;;7.63;;
15833;SDS011;8017;50.812;4.934;2023-05-03T04:00:38;7.80;;;6.70;;
15833;SDS011;8017;50.812;4.934;2023-05-03T04:03:40;12.57;;;7.17;;
15833;SDS011;8017;50.812;4.934;2023-05-03T04:06:42;11.17;;;7.20;;
15833;SDS011;8017;50.812;4.934;2023-05-03T04:09:44;11.30;;;6.77;;
15833;SDS011;8017;50.812;4.934;2023-05-03T04:12:47;11.30;;;7.77;;
15833;SDS011;8017;50.812;4.934;2023-05-03T04:15:52;13.53;;;8.37;;
15833;SDS011;8017;50.812;4.934;2023-05-03T04:18:55;9.37;;;7.27;;
15833;SDS011;8017;50.812;4.934;2023-05-03T04:21:57;12.20;;;7.60;;
15833;SDS011;8017;50.812;4.934;2023-05-03T04:24:59;11.80;;;7.93;;
15833;SDS011;8017;50.812;4.934;2023-05-03T04:28:03;13.97;;;7.97;;
15833;SDS011;8017;50.812;4.934;2023-05-03T04:31:05;10.93;;;8.13;;
15833;SDS011;8017;50.812;4.934;2023-05-03T04:34:08;13.53;;;8.20;;
15833;SDS011;8017;50.812;4.934;2023-05-03T04:37:14;13.10;;;7.57;;
15833;SDS011;8017;50.812;4.934;2023-05-03T04:40:16;11.03;;;8.40;;
15833;SDS011;8017;50.812;4.934;2023-05-03T04:43:20;10.50;;;7.70;;
15833;SDS011;8017;50.812;4.934;2023-05-03T04:46:22;11.73;;;7.97;;
15833;SDS011;8017;50.812;4.934;2023-05-03T04:49:24;13.67;;;8.13;;
15833;SDS011;8017;50.812;4.934;2023-05-03T04:52:26;10.90;;;8.23;;
15833;SDS011;8017;50.812;4.934;2023-05-03T04:55:28;13.13;;;8.03;;
15833;SDS011;8017;50.812;4.934;2023-05-03T04:58:31;11.27;;;8.33;;
15833;SDS011;8017;50.812;4.934;2023-05-03T05:01:33;13.63;;;8.20;;
15833;SDS011;8017;50.812;4.934;2023-05-03T05:04:35;10.50;;;8.13;;
15833;SDS011;8017;50.812;4.934;2023-05-03T05:07:37;12.30;;;8.17;;
15833;SDS011;8017;50.812;4.934;2023-05-03T05:10:39;12.27;;;9.97;;
15833;SDS011;8017;50.812;4.934;2023-05-03T05:13:43;9.97;;;7.97;;
15833;SDS011;8017;50.812;4.934;2023-05-03T05:16:45;15.37;;;8.57;;
15833;SDS011;8017;50.812;4.934;2023-05-03T05:19:47;13.17;;;8.10;;
15833;SDS011;8017;50.812;4.934;2023-05-03T05:22:49;13.90;;;8.97;;
15833;SDS011;8017;50.812;4.934;2023-05-03T05:25:51;12.47;;;8.70;;
15833;SDS011;8017;50.812;4.934;2023-05-03T05:28:54;15.40;;;8.27;;
15833;SDS011;8017;50.812;4.934;2023-05-03T05:31:56;11.70;;;8.47;;
15833;SDS011;8017;50.812;4.934;2023-05-03T05:34:58;14.37;;;7.77;;
15833;SDS011;8017;50.812;4.934;2023-05-03T05:38:04;12.10;;;7.70;;
15833;SDS011;8017;50.812;4.934;2023-05-03T05:41:09;9.40;;;8.00;;
15833;SDS011;8017;50.812;4.934;2023-05-03T05:44:13;13.87;;;8.23;;
15833;SDS011;8017;50.812;4.934;2023-05-03T05:47:15;14.47;;;9.40;;
15833;SDS011;8017;50.812;4.934;2023-05-03T05:50:17;12.57;;;8.47;;
15833;SDS011;8017;50.812;4.934;2023-05-03T05:53:19;15.33;;;9.00;;
15833;SDS011;8017;50.812;4.934;2023-05-03T05:56:21;14.40;;;9.93;;
15833;SDS011;8017;50.812;4.934;2023-05-03T05:59:25;13.73;;;9.10;;
15833;SDS011;8017;50.812;4.934;2023-05-03T06:02:28;12.23;;;8.70;;
15833;SDS011;8017;50.812;4.934;2023-05-03T06:05:30;13.57;;;9.60;;
15833;SDS011;8017;50.812;4.934;2023-05-03T06:08:32;17.77;;;9.80;;
15833;SDS011;8017;50.812;4.934;2023-05-03T06:11:35;14.83;;;10.13;;
15833;SDS011;8017;50.812;4.934;2023-05-03T06:14:39;13.77;;;9.43;;
15833;SDS011;8017;50.812;4.934;2023-05-03T06:17:41;13.20;;;9.53;;
15833;SDS011;8017;50.812;4.934;2023-05-03T06:20:43;11.90;;;10.07;;
15833;SDS011;8017;50.812;4.934;2023-05-03T06:23:48;16.80;;;10.03;;
15833;SDS011;8017;50.812;4.934;2023-05-03T06:26:50;13.10;;;9.40;;
15833;SDS011;8017;50.812;4.934;2023-05-03T06:29:53;14.77;;;9.63;;
15833;SDS011;8017;50.812;4.934;2023-05-03T06:32:55;16.07;;;10.20;;
15833;SDS011;8017;50.812;4.934;2023-05-03T06:35:57;13.07;;;9.17;;
15833;SDS011;8017;50.812;4.934;2023-05-03T06:38:59;16.10;;;9.47;;
15833;SDS011;8017;50.812;4.934;2023-05-03T06:42:03;14.53;;;10.03;;
15833;SDS011;8017;50.812;4.934;2023-05-03T06:45:08;12.80;;;9.20;;
15833;SDS011;8017;50.812;4.934;2023-05-03T06:48:11;13.67;;;10.07;;
15833;SDS011;8017;50.812;4.934;2023-05-03T06:51:13;12.23;;;8.83;;
15833;SDS011;8017;50.812;4.934;2023-05-03T06:54:14;14.03;;;9.67;;
15833;SDS011;8017;50.812;4.934;2023-05-03T06:57:16;16.07;;;9.83;;
15833;SDS011;8017;50.812;4.934;2023-05-03T07:00:20;12.23;;;9.67;;
15833;SDS011;8017;50.812;4.934;2023-05-03T07:03:22;12.23;;;9.90;;
15833;SDS011;8017;50.812;4.934;2023-05-03T07:06:24;14.13;;;9.13;;
15833;SDS011;8017;50.812;4.934;2023-05-03T07:09:26;16.93;;;10.53;;
15833;SDS011;8017;50.812;4.934;2023-05-03T07:12:28;15.47;;;10.13;;
15833;SDS011;8017;50.812;4.934;2023-05-03T07:15:32;12.90;;;9.83;;
15833;SDS011;8017;50.812;4.934;2023-05-03T07:18:34;13.57;;;10.77;;
15833;SDS011;8017;50.812;4.934;2023-05-03T07:21:36;13.40;;;9.93;;
15833;SDS011;8017;50.812;4.934;2023-05-03T07:24:38;15.80;;;10.37;;
15833;SDS011;8017;50.812;4.934;2023-05-03T07:27:40;17.23;;;10.93;;
15833;SDS011;8017;50.812;4.934;2023-05-03T07:30:44;14.57;;;11.00;;
15833;SDS011;8017;50.812;4.934;2023-05-03T07:33:45;16.50;;;10.70;;
15833;SDS011;8017;50.812;4.934;2023-05-03T07:36:47;15.30;;;10.57;;
15833;SDS011;8017;50.812;4.934;2023-05-03T07:39:49;15.10;;;11.10;;
15833;SDS011;8017;50.812;4.934;2023-05-03T07:42:51;15.67;;;11.17;;
15833;SDS011;8017;50.812;4.934;2023-05-03T07:45:55;19.17;;;11.07;;
15833;SDS011;8017;50.812;4.934;2023-05-03T07:48:57;20.17;;;11.13;;
15833;SDS011;8017;50.812;4.934;2023-05-03T07:51:59;19.87;;;10.97;;
15833;SDS011;8017;50.812;4.934;2023-05-03T07:55:01;17.37;;;11.27;;
15833;SDS011;8017;50.812;4.934;2023-05-03T07:58:03;16.77;;;11.13;;
15833;SDS011;8017;50.812;4.934;2023-05-03T08:01:06;16.60;;;11.60;;
15833;SDS011;8017;50.812;4.934;2023-05-03T08:04:08;13.70;;;10.80;;
15833;SDS011;8017;50.812;4.934;2023-05-03T08:07:10;13.13;;;11.23;;
15833;SDS011;8017;50.812;4.934;2023-05-03T08:10:12;18.00;;;11.63;;
15833;SDS011;8017;50.812;4.934;2023-05-03T08:13:14;17.27;;;11.43;;
15833;SDS011;8017;50.812;4.934;2023-05-03T08:16:17;17.33;;;11.30;;
15833;SDS011;8017;50.812;4.934;2023-05-03T08:19:20;17.57;;;11.73;;
15833;SDS011;8017;50.812;4.934;2023-05-03T08:22:22;14.33;;;11.53;;
15833;SDS011;8017;50.812;4.934;2023-05-03T08:25:25;17.00;;;11.50;;
15833;SDS011;8017;50.812;4.934;2023-05-03T08:28:27;19.03;;;11.47;;
15833;SDS011;8017;50.812;4.934;2023-05-03T08:31:31;16.07;;;12.00;;
15833;SDS011;8017;50.812;4.934;2023-05-03T08:34:33;15.73;;;11.93;;
15833;SDS011;8017;50.812;4.934;2023-05-03T08:37:38;11.97;;;10.73;;
15833;SDS011;8017;50.812;4.934;2023-05-03T08:40:40;20.63;;;12.70;;
15833;SDS011;8017;50.812;4.934;2023-05-03T08:43:43;16.50;;;11.33;;
15833;SDS011;8017;50.812;4.934;2023-05-03T08:46:47;20.90;;;12.30;;
15833;SDS011;8017;50.812;4.934;2023-05-03T08:49:49;15.73;;;11.50;;
15833;SDS011;8017;50.812;4.934;2023-05-03T08:52:53;18.97;;;11.43;;
15833;SDS011;8017;50.812;4.934;2023-05-03T08:55:56;15.97;;;10.70;;
15833;SDS011;8017;50.812;4.934;2023-05-03T08:58:58;13.97;;;9.93;;
15833;SDS011;8017;50.812;4.934;2023-05-03T09:02:08;15.47;;;10.77;;
15833;SDS011;8017;50.812;4.934;2023-05-03T09:05:33;14.47;;;10.03;;
15833;SDS011;8017;50.812;4.934;2023-05-03T09:08:41;13.07;;;10.07;;
15833;SDS011;8017;50.812;4.934;2023-05-03T09:11:43;15.87;;;9.63;;
15833;SDS011;8017;50.812;4.934;2023-05-03T09:14:45;15.67;;;9.67;;
15833;SDS011;8017;50.812;4.934;2023-05-03T09:17:54;18.20;;;10.40;;
15833;SDS011;8017;50.812;4.934;2023-05-03T09:21:16;15.27;;;9.97;;
15833;SDS011;8017;50.812;4.934;2023-05-03T09:24:20;14.63;;;10.73;;
15833;SDS011;8017;50.812;4.934;2023-05-03T09:27:22;16.37;;;9.77;;
15833;SDS011;8017;50.812;4.934;2023-05-03T09:30:25;14.33;;;10.33;;
15833;SDS011;8017;50.812;4.934;2023-05-03T09:33:29;14.23;;;9.50;;
15833;SDS011;8017;50.812;4.934;2023-05-03T09:36:43;13.37;;;9.93;;
15833;SDS011;8017;50.812;4.934;2023-05-03T09:39:46;13.67;;;9.27;;
15833;SDS011;8017;50.812;4.934;2023-05-03T09:43:04;16.33;;;10.50;;
15833;SDS011;8017;50.812;4.934;2023-05-03T09:46:08;13.03;;;8.57;;
15833;SDS011;8017;50.812;4.934;2023-05-03T09:49:12;21.13;;;10.13;;
15833;SDS011;8017;50.812;4.934;2023-05-03T09:52:15;12.80;;;9.70;;
15833;SDS011;8017;50.812;4.934;2023-05-03T09:55:17;14.77;;;9.47;;
15833;SDS011;8017;50.812;4.934;2023-05-03T09:58:19;15.37;;;9.50;;
15833;SDS011;8017;50.812;4.934;2023-05-03T10:01:23;11.07;;;8.33;;
15833;SDS011;8017;50.812;4.934;2023-05-03T10:04:28;20.47;;;10.43;;
15833;SDS011;8017;50.812;4.934;2023-05-03T10:07:36;14.13;;;9.43;;
15833;SDS011;8017;50.812;4.934;2023-05-03T10:10:41;13.37;;;9.70;;
15833;SDS011;8017;50.812;4.934;2023-05-03T10:13:45;12.37;;;8.63;;
15833;SDS011;8017;50.812;4.934;2023-05-03T10:16:48;10.90;;;8.47;;
15833;SDS011;8017;50.812;4.934;2023-05-03T10:19:54;13.10;;;9.30;;
15833;SDS011;8017;50.812;4.934;2023-05-03T10:23:07;16.00;;;10.33;;
15833;SDS011;8017;50.812;4.934;2023-05-03T10:26:13;18.10;;;11.60;;
15833;SDS011;8017;50.812;4.934;2023-05-03T10:32:47;17.60;;;10.27;;
15833;SDS011;8017;50.812;4.934;2023-05-03T10:35:51;16.23;;;10.93;;
15833;SDS011;8017;50.812;4.934;2023-05-03T10:38:54;15.77;;;11.07;;
15833;SDS011;8017;50.812;4.934;2023-05-03T10:41:58;13.50;;;9.93;;
15833;SDS011;8017;50.812;4.934;2023-05-03T10:45:02;10.70;;;9.60;;
15833;SDS011;8017;50.812;4.934;2023-05-03T10:48:16;16.10;;;10.50;;
15833;SDS011;8017;50.812;4.934;2023-05-03T10:51:32;14.90;;;10.73;;
15833;SDS011;8017;50.812;4.934;2023-05-03T10:54:36;14.40;;;10.23;;
15833;SDS011;8017;50.812;4.934;2023-05-03T10:57:38;14.07;;;9.80;;
15833;SDS011;8017;50.812;4.934;2023-05-03T11:00:41;13.37;;;9.97;;
15833;SDS011;8017;50.812;4.934;2023-05-03T11:03:46;14.50;;;10.23;;
15833;SDS011;8017;50.812;4.934;2023-05-03T11:06:53;20.60;;;10.70;;
15833;SDS011;8017;50.812;4.934;2023-05-03T11:09:55;11.67;;;9.87;;
15833;SDS011;8017;50.812;4.934;2023-05-03T11:12:57;14.53;;;10.27;;
15833;SDS011;8017;50.812;4.934;2023-05-03T11:15:59;16.47;;;9.83;;
15833;SDS011;8017;50.812;4.934;2023-05-03T11:19:02;14.17;;;10.03;;
15833;SDS011;8017;50.812;4.934;2023-05-03T11:22:07;17.37;;;10.27;;
15833;SDS011;8017;50.812;4.934;2023-05-03T11:25:09;11.30;;;9.67;;
15833;SDS011;8017;50.812;4.934;2023-05-03T11:28:11;15.20;;;10.40;;
15833;SDS011;8017;50.812;4.934;2023-05-03T11:31:13;14.67;;;10.03;;
15833;SDS011;8017;50.812;4.934;2023-05-03T11:34:15;16.30;;;10.77;;
15833;SDS011;8017;50.812;4.934;2023-05-03T11:37:18;14.27;;;9.93;;
15833;SDS011;8017;50.812;4.934;2023-05-03T11:40:20;15.13;;;10.43;;
15833;SDS011;8017;50.812;4.934;2023-05-03T11:43:22;14.23;;;10.40;;
15833;SDS011;8017;50.812;4.934;2023-05-03T11:46:25;13.07;;;9.20;;
15833;SDS011;8017;50.812;4.934;2023-05-03T11:49:29;11.77;;;9.20;;
15833;SDS011;8017;50.812;4.934;2023-05-03T11:52:35;14.17;;;9.40;;
15833;SDS011;8017;50.812;4.934;2023-05-03T11:55:37;14.87;;;9.87;;
15833;SDS011;8017;50.812;4.934;2023-05-03T11:58:51;14.47;;;10.13;;
15833;SDS011;8017;50.812;4.934;2023-05-03T12:01:56;13.43;;;10.07;;
15833;SDS011;8017;50.812;4.934;2023-05-03T12:04:58;18.00;;;10.60;;
15833;SDS011;8017;50.812;4.934;2023-05-03T12:08:02;22.60;;;11.23;;
15833;SDS011;8017;50.812;4.934;2023-05-03T12:11:04;15.17;;;10.40;;
15833;SDS011;8017;50.812;4.934;2023-05-03T12:14:06;12.67;;;10.90;;
15833;SDS011;8017;50.812;4.934;2023-05-03T12:17:08;12.53;;;9.53;;
15833;SDS011;8017;50.812;4.934;2023-05-03T12:20:14;13.63;;;9.13;;
15833;SDS011;8017;50.812;4.934;2023-05-03T12:23:18;13.93;;;10.17;;
15833;SDS011;8017;50.812;4.934;2023-05-03T12:26:21;11.73;;;9.47;;
15833;SDS011;8017;50.812;4.934;2023-05-03T12:29:24;14.23;;;10.13;;
15833;SDS011;8017;50.812;4.934;2023-05-03T12:32:26;13.83;;;9.87;;
15833;SDS011;8017;50.812;4.934;2023-05-03T12:35:28;13.67;;;10.43;;
15833;SDS011;8017;50.812;4.934;2023-05-03T12:38:32;17.33;;;10.50;;
15833;SDS011;8017;50.812;4.934;2023-05-03T12:41:34;16.07;;;9.40;;
15833;SDS011;8017;50.812;4.934;2023-05-03T12:44:37;16.00;;;10.27;;
15833;SDS011;8017;50.812;4.934;2023-05-03T12:47:39;14.17;;;10.20;;
15833;SDS011;8017;50.812;4.934;2023-05-03T12:50:41;13.77;;;10.33;;
15833;SDS011;8017;50.812;4.934;2023-05-03T12:53:45;14.83;;;9.73;;
15833;SDS011;8017;50.812;4.934;2023-05-03T12:56:48;10.00;;;8.87;;
15833;SDS011;8017;50.812;4.934;2023-05-03T12:59:50;12.73;;;10.17;;
15833;SDS011;8017;50.812;4.934;2023-05-03T13:02:53;13.50;;;9.97;;
15833;SDS011;8017;50.812;4.934;2023-05-03T13:05:55;15.67;;;10.10;;
15833;SDS011;8017;50.812;4.934;2023-05-03T13:08:58;11.57;;;9.63;;
15833;SDS011;8017;50.812;4.934;2023-05-03T13:12:01;15.03;;;9.53;;
15833;SDS011;8017;50.812;4.934;2023-05-03T13:15:03;12.53;;;9.53;;
15833;SDS011;8017;50.812;4.934;2023-05-03T13:18:06;14.13;;;8.50;;
15833;SDS011;8017;50.812;4.934;2023-05-03T13:21:08;14.10;;;9.93;;
15833;SDS011;8017;50.812;4.934;2023-05-03T13:24:12;11.63;;;8.90;;
15833;SDS011;8017;50.812;4.934;2023-05-03T13:27:14;12.17;;;8.73;;
15833;SDS011;8017;50.812;4.934;2023-05-03T13:30:17;10.87;;;7.97;;
15833;SDS011;8017;50.812;4.934;2023-05-03T13:33:19;13.57;;;8.43;;
15833;SDS011;8017;50.812;4.934;2023-05-03T13:36:21;9.33;;;8.37;;
15833;SDS011;8017;50.812;4.934;2023-05-03T13:39:25;10.43;;;8.60;;
15833;SDS011;8017;50.812;4.934;2023-05-03T13:42:27;11.80;;;7.90;;
15833;SDS011;8017;50.812;4.934;2023-05-03T13:45:29;11.07;;;7.90;;
15833;SDS011;8017;50.812;4.934;2023-05-03T13:48:31;12.47;;;7.67;;
15833;SDS011;8017;50.812;4.934;2023-05-03T13:51:33;8.53;;;7.50;;
15833;SDS011;8017;50.812;4.934;2023-05-03T13:54:36;9.40;;;8.27;;
15833;SDS011;8017;50.812;4.934;2023-05-03T13:57:38;12.27;;;7.27;;
15833;SDS011;8017;50.812;4.934;2023-05-03T14:00:40;10.37;;;7.37;;
15833;SDS011;8017;50.812;4.934;2023-05-03T14:03:42;10.67;;;8.17;;
15833;SDS011;8017;50.812;4.934;2023-05-03T14:06:44;11.53;;;8.40;;
15833;SDS011;8017;50.812;4.934;2023-05-03T14:09:47;15.53;;;9.83;;
15833;SDS011;8017;50.812;4.934;2023-05-03T14:12:49;11.00;;;8.70;;
15833;SDS011;8017;50.812;4.934;2023-05-03T14:15:51;11.50;;;9.20;;
15833;SDS011;8017;50.812;4.934;2023-05-03T14:18:54;14.23;;;9.50;;
15833;SDS011;8017;50.812;4.934;2023-05-03T14:21:56;12.60;;;9.47;;
15833;SDS011;8017;50.812;4.934;2023-05-03T14:25:00;11.40;;;9.20;;
15833;SDS011;8017;50.812;4.934;2023-05-03T14:28:02;12.73;;;10.03;;
15833;SDS011;8017;50.812;4.934;2023-05-03T14:31:05;15.00;;;9.73;;
15833;SDS011;8017;50.812;4.934;2023-05-03T14:34:08;16.47;;;9.80;;
15833;SDS011;8017;50.812;4.934;2023-05-03T14:37:09;14.17;;;9.20;;
15833;SDS011;8017;50.812;4.934;2023-05-03T14:40:13;13.20;;;10.00;;
15833;SDS011;8017;50.812;4.934;2023-05-03T14:43:16;13.30;;;10.30;;
15833;SDS011;8017;50.812;4.934;2023-05-03T14:46:18;15.80;;;10.20;;
15833;SDS011;8017;50.812;4.934;2023-05-03T14:49:20;12.50;;;9.87;;
15833;SDS011;8017;50.812;4.934;2023-05-03T14:52:22;13.23;;;9.53;;
15833;SDS011;8017;50.812;4.934;2023-05-03T14:55:25;10.57;;;8.87;;
15833;SDS011;8017;50.812;4.934;2023-05-03T14:58:27;13.03;;;9.13;;
15833;SDS011;8017;50.812;4.934;2023-05-03T15:01:29;14.47;;;10.40;;
15833;SDS011;8017;50.812;4.934;2023-05-03T15:04:31;10.73;;;9.63;;
15833;SDS011;8017;50.812;4.934;2023-05-03T15:07:33;14.70;;;9.97;;
15833;SDS011;8017;50.812;4.934;2023-05-03T15:10:38;11.50;;;8.93;;
15833;SDS011;8017;50.812;4.934;2023-05-03T15:13:40;14.50;;;9.50;;
15833;SDS011;8017;50.812;4.934;2023-05-03T15:16:42;15.53;;;9.30;;
15833;SDS011;8017;50.812;4.934;2023-05-03T15:19:44;13.77;;;9.03;;
15833;SDS011;8017;50.812;4.934;2023-05-03T15:22:46;12.43;;;9.27;;
15833;SDS011;8017;50.812;4.934;2023-05-03T15:25:49;12.67;;;8.87;;
15833;SDS011;8017;50.812;4.934;2023-05-03T15:28:51;9.03;;;7.83;;
15833;SDS011;8017;50.812;4.934;2023-05-03T15:31:53;14.47;;;8.63;;
15833;SDS011;8017;50.812;4.934;2023-05-03T15:34:55;12.07;;;8.70;;
15833;SDS011;8017;50.812;4.934;2023-05-03T15:37:57;12.43;;;7.97;;
15833;SDS011;8017;50.812;4.934;2023-05-03T15:41:01;10.53;;;7.77;;
15833;SDS011;8017;50.812;4.934;2023-05-03T15:44:03;10.47;;;8.10;;
15833;SDS011;8017;50.812;4.934;2023-05-03T15:47:07;9.63;;;7.80;;
15833;SDS011;8017;50.812;4.934;2023-05-03T15:50:09;9.70;;;7.53;;
15833;SDS011;8017;50.812;4.934;2023-05-03T15:53:11;11.37;;;7.90;;
15833;SDS011;8017;50.812;4.934;2023-05-03T15:56:15;10.63;;;6.70;;
15833;SDS011;8017;50.812;4.934;2023-05-03T15:59:17;11.53;;;7.43;;
15833;SDS011;8017;50.812;4.934;2023-05-03T16:02:19;8.60;;;7.23;;
15833;SDS011;8017;50.812;4.934;2023-05-03T16:05:21;10.70;;;7.23;;
15833;SDS011;8017;50.812;4.934;2023-05-03T16:08:23;7.40;;;6.30;;
15833;SDS011;8017;50.812;4.934;2023-05-03T16:11:27;8.70;;;6.30;;
15833;SDS011;8017;50.812;4.934;2023-05-03T16:14:29;8.40;;;6.20;;
15833;SDS011;8017;50.812;4.934;2023-05-03T16:17:31;10.97;;;7.33;;
15833;SDS011;8017;50.812;4.934;2023-05-03T16:20:33;10.00;;;6.53;;
15833;SDS011;8017;50.812;4.934;2023-05-03T16:23:35;6.77;;;6.07;;
15833;SDS011;8017;50.812;4.934;2023-05-03T16:26:39;8.77;;;6.63;;
15833;SDS011;8017;50.812;4.934;2023-05-03T16:29:41;9.47;;;7.07;;
15833;SDS011;8017;50.812;4.934;2023-05-03T16:32:43;8.10;;;5.60;;
15833;SDS011;8017;50.812;4.934;2023-05-03T16:35:45;6.40;;;5.70;;
15833;SDS011;8017;50.812;4.934;2023-05-03T16:38:48;9.30;;;6.43;;
15833;SDS011;8017;50.812;4.934;2023-05-03T16:41:52;10.17;;;6.40;;
15833;SDS011;8017;50.812;4.934;2023-05-03T16:44:54;7.90;;;6.20;;
15833;SDS011;8017;50.812;4.934;2023-05-03T16:47:56;10.03;;;6.30;;
15833;SDS011;8017;50.812;4.934;2023-05-03T16:50:58;8.03;;;6.17;;
15833;SDS011;8017;50.812;4.934;2023-05-03T16:54:00;9.87;;;6.23;;
15833;SDS011;8017;50.812;4.934;2023-05-03T16:57:04;9.57;;;6.10;;
15833;SDS011;8017;50.812;4.934;2023-05-03T17:00:06;6.90;;;6.20;;
15833;SDS011;8017;50.812;4.934;2023-05-03T17:03:09;8.53;;;6.40;;
15833;SDS011;8017;50.812;4.934;2023-05-03T17:06:13;8.63;;;6.00;;
15833;SDS011;8017;50.812;4.934;2023-05-03T17:09:15;10.23;;;6.93;;
15833;SDS011;8017;50.812;4.934;2023-05-03T17:12:18;10.03;;;6.67;;
15833;SDS011;8017;50.812;4.934;2023-05-03T17:15:21;8.40;;;6.60;;
15833;SDS011;8017;50.812;4.934;2023-05-03T17:18:23;12.73;;;7.30;;
15833;SDS011;8017;50.812;4.934;2023-05-03T17:21:25;10.73;;;7.20;;
15833;SDS011;8017;50.812;4.934;2023-05-03T17:24:27;8.07;;;6.67;;
15833;SDS011;8017;50.812;4.934;2023-05-03T17:27:30;9.57;;;6.30;;
15833;SDS011;8017;50.812;4.934;2023-05-03T17:30:32;9.40;;;6.87;;
15833;SDS011;8017;50.812;4.934;2023-05-03T17:33:34;8.43;;;7.30;;
15833;SDS011;8017;50.812;4.934;2023-05-03T17:36:36;12.07;;;7.23;;
15833;SDS011;8017;50.812;4.934;2023-05-03T17:39:38;9.50;;;7.03;;
15833;SDS011;8017;50.812;4.934;2023-05-03T17:42:42;9.63;;;7.10;;
15833;SDS011;8017;50.812;4.934;2023-05-03T17:45:45;11.63;;;7.07;;
15833;SDS011;8017;50.812;4.934;2023-05-03T17:48:47;8.20;;;6.10;;
15833;SDS011;8017;50.812;4.934;2023-05-03T17:51:51;8.77;;;6.80;;
15833;SDS011;8017;50.812;4.934;2023-05-03T17:54:53;10.87;;;7.53;;
15833;SDS011;8017;50.812;4.934;2023-05-03T17:57:57;9.80;;;6.43;;
15833;SDS011;8017;50.812;4.934;2023-05-03T18:00:59;9.03;;;6.93;;
15833;SDS011;8017;50.812;4.934;2023-05-03T18:04:00;8.47;;;6.47;;
15833;SDS011;8017;50.812;4.934;2023-05-03T18:07:02;10.00;;;6.60;;
15833;SDS011;8017;50.812;4.934;2023-05-03T18:10:05;9.47;;;6.70;;
15833;SDS011;8017;50.812;4.934;2023-05-03T18:13:10;9.37;;;6.50;;
15833;SDS011;8017;50.812;4.934;2023-05-03T18:16:12;12.33;;;6.80;;
15833;SDS011;8017;50.812;4.934;2023-05-03T18:19:14;9.73;;;6.93;;
15833;SDS011;8017;50.812;4.934;2023-05-03T18:22:16;9.07;;;6.30;;
15833;SDS011;8017;50.812;4.934;2023-05-03T18:25:18;11.93;;;6.87;;
15833;SDS011;8017;50.812;4.934;2023-05-03T18:28:21;10.97;;;6.73;;